Hovedside
METAR-TAF:

METAR-TAF

Lufthavner :

Københavns lufthavn

København, Danmark

breddegrad: 55-37N, lengdegrad: 012-39E, høyde over havet: 5 m

Gjeldene værobservasjon

Denne rapporten ble laget for 31 minutter siden, klokken 15:50 UTC
Vind 6 kt fra Sør
Temperatur 20°C
Luftfuktighet 73%
Trykk 1020 hPa
Sikt 10 km eller mer

METAR: EKCH 241550Z AUTO 18006KT 9999 FEW030/// 20/15 Q1020 NOSIG

Tid: 18:21 (16:21 UTC)

Varsel

Denne rapporten ble laget for 5 timer og 15 minutter siden, klokken 11:06 UTC
Varsel gyldig fra 24. klokken 12 UTC til 25. klokken 12 UTC
Vind 5 kt fra Vest-sørvest
Sikt 10 km eller mer
Spredte skyer i en høyde av 2500 ft

TAF: EKCH 241106Z 2412/2512 24005KT 9999 SCT025

Værobservasjoner og værvarsel for over 4000 flyplasser (METAR- og TAF-rapporter).

Tilgjengelige stasjoner er representert av de røde og gule prikkene på kartet.

Hold musepekeren over prikken for å se navnet på stasjonen.

Klikk så for å se værobservasjoner og -varsler.

For å forandre kartet kan du klikke på den grønne knappen med svart kryss for å zoome inn, på den grønne knappen med strek for å zoome ut, eller på de grønne pilene for å se tilstøtende kart.


METAR-TAF: